sensor_id;sensor_type;location;lat;lon;timestamp;temperature;humidity
336;DHT22;156;48.738;9.228;2023-08-31T00:01:30;13.10;99.90
336;DHT22;156;48.738;9.228;2023-08-31T00:06:26;13.10;99.90
336;DHT22;156;48.738;9.228;2023-08-31T00:08:54;13.20;99.90
336;DHT22;156;48.738;9.228;2023-08-31T00:11:21;13.20;99.90
336;DHT22;156;48.738;9.228;2023-08-31T00:13:56;13.10;99.90
336;DHT22;156;48.738;9.228;2023-08-31T00:26:51;13.00;99.90
336;DHT22;156;48.738;9.228;2023-08-31T00:29:51;13.00;99.90
336;DHT22;156;48.738;9.228;2023-08-31T00:33:01;13.00;99.90
336;DHT22;156;48.738;9.228;2023-08-31T00:40:44;12.90;99.90
336;DHT22;156;48.738;9.228;2023-08-31T00:43:12;12.90;99.90
336;DHT22;156;48.738;9.228;2023-08-31T00:45:41;13.00;99.90
336;DHT22;156;48.738;9.228;2023-08-31T00:48:08;12.90;99.90
336;DHT22;156;48.738;9.228;2023-08-31T00:50:36;12.90;99.90
336;DHT22;156;48.738;9.228;2023-08-31T00:53:03;12.90;99.90
336;DHT22;156;48.738;9.228;2023-08-31T00:55:32;12.90;99.90
336;DHT22;156;48.738;9.228;2023-08-31T00:58:00;12.90;99.90
336;DHT22;156;48.738;9.228;2023-08-31T01:00:36;12.90;99.90
336;DHT22;156;48.738;9.228;2023-08-31T01:03:12;12.80;99.90
336;DHT22;156;48.738;9.228;2023-08-31T01:05:46;12.80;99.90
336;DHT22;156;48.738;9.228;2023-08-31T01:08:22;12.70;99.90
336;DHT22;156;48.738;9.228;2023-08-31T01:11:01;12.70;99.90
336;DHT22;156;48.738;9.228;2023-08-31T01:13:34;12.70;99.90
336;DHT22;156;48.738;9.228;2023-08-31T01:16:05;12.70;99.90
336;DHT22;156;48.738;9.228;2023-08-31T01:18:34;12.80;99.90
336;DHT22;156;48.738;9.228;2023-08-31T01:21:09;12.80;99.90
336;DHT22;156;48.738;9.228;2023-08-31T01:23:51;12.80;99.90
336;DHT22;156;48.738;9.228;2023-08-31T01:26:21;12.70;99.90
336;DHT22;156;48.738;9.228;2023-08-31T01:28:49;12.70;99.90
336;DHT22;156;48.738;9.228;2023-08-31T01:31:16;12.60;99.90
336;DHT22;156;48.738;9.228;2023-08-31T01:33:47;12.60;99.90
336;DHT22;156;48.738;9.228;2023-08-31T01:36:22;12.60;99.90
336;DHT22;156;48.738;9.228;2023-08-31T01:38:58;12.50;99.90
336;DHT22;156;48.738;9.228;2023-08-31T01:41:27;12.50;99.90
336;DHT22;156;48.738;9.228;2023-08-31T01:43:56;12.50;99.90
336;DHT22;156;48.738;9.228;2023-08-31T01:46:25;12.50;99.90
336;DHT22;156;48.738;9.228;2023-08-31T01:48:52;12.40;99.90
336;DHT22;156;48.738;9.228;2023-08-31T01:51:19;12.40;99.90
336;DHT22;156;48.738;9.228;2023-08-31T01:53:46;12.50;99.90
336;DHT22;156;48.738;9.228;2023-08-31T01:56:16;12.40;99.90
336;DHT22;156;48.738;9.228;2023-08-31T01:58:44;12.40;99.90
336;DHT22;156;48.738;9.228;2023-08-31T02:01:11;12.40;99.90
336;DHT22;156;48.738;9.228;2023-08-31T02:03:38;12.40;99.90
336;DHT22;156;48.738;9.228;2023-08-31T02:06:05;12.30;99.90
336;DHT22;156;48.738;9.228;2023-08-31T02:08:34;12.00;99.90
336;DHT22;156;48.738;9.228;2023-08-31T02:11:01;12.40;99.90
336;DHT22;156;48.738;9.228;2023-08-31T02:13:34;12.30;99.90
336;DHT22;156;48.738;9.228;2023-08-31T02:16:01;12.30;99.90
336;DHT22;156;48.738;9.228;2023-08-31T02:18:28;12.20;99.90
336;DHT22;156;48.738;9.228;2023-08-31T02:20:57;12.30;99.90
336;DHT22;156;48.738;9.228;2023-08-31T02:23:26;12.30;99.90
336;DHT22;156;48.738;9.228;2023-08-31T02:25:53;12.20;99.90
336;DHT22;156;48.738;9.228;2023-08-31T02:28:20;12.30;99.90
336;DHT22;156;48.738;9.228;2023-08-31T02:30:57;12.30;99.90
336;DHT22;156;48.738;9.228;2023-08-31T02:33:25;12.30;99.90
336;DHT22;156;48.738;9.228;2023-08-31T02:35:53;12.30;99.90
336;DHT22;156;48.738;9.228;2023-08-31T02:38:21;12.30;99.90
336;DHT22;156;48.738;9.228;2023-08-31T02:40:48;12.30;99.90
336;DHT22;156;48.738;9.228;2023-08-31T02:43:15;12.40;99.90
336;DHT22;156;48.738;9.228;2023-08-31T02:45:42;12.40;99.90
336;DHT22;156;48.738;9.228;2023-08-31T02:48:10;12.40;99.90
336;DHT22;156;48.738;9.228;2023-08-31T02:50:38;12.40;99.90
336;DHT22;156;48.738;9.228;2023-08-31T02:53:05;12.40;99.90
336;DHT22;156;48.738;9.228;2023-08-31T02:55:32;12.40;99.90
336;DHT22;156;48.738;9.228;2023-08-31T02:57:59;12.40;99.90
336;DHT22;156;48.738;9.228;2023-08-31T03:00:26;12.30;99.90
336;DHT22;156;48.738;9.228;2023-08-31T03:02:53;12.30;99.90
336;DHT22;156;48.738;9.228;2023-08-31T03:05:22;12.30;99.90
336;DHT22;156;48.738;9.228;2023-08-31T03:07:48;12.30;99.90
336;DHT22;156;48.738;9.228;2023-08-31T03:10:15;12.40;99.90
336;DHT22;156;48.738;9.228;2023-08-31T03:12:42;12.30;99.90
336;DHT22;156;48.738;9.228;2023-08-31T03:15:09;12.30;99.90
336;DHT22;156;48.738;9.228;2023-08-31T03:17:36;12.30;99.90
336;DHT22;156;48.738;9.228;2023-08-31T03:20:04;12.30;99.90
336;DHT22;156;48.738;9.228;2023-08-31T03:22:33;12.30;99.90
336;DHT22;156;48.738;9.228;2023-08-31T03:25:00;12.20;99.90
336;DHT22;156;48.738;9.228;2023-08-31T03:27:30;12.20;99.90
336;DHT22;156;48.738;9.228;2023-08-31T03:29:56;12.10;99.90
336;DHT22;156;48.738;9.228;2023-08-31T03:32:23;12.10;99.90
336;DHT22;156;48.738;9.228;2023-08-31T03:34:53;12.10;99.90
336;DHT22;156;48.738;9.228;2023-08-31T03:37:22;12.10;99.90
336;DHT22;156;48.738;9.228;2023-08-31T03:39:50;12.10;99.90
336;DHT22;156;48.738;9.228;2023-08-31T03:42:17;12.00;99.90
336;DHT22;156;48.738;9.228;2023-08-31T03:44:44;12.00;99.90
336;DHT22;156;48.738;9.228;2023-08-31T03:47:11;12.00;99.90
336;DHT22;156;48.738;9.228;2023-08-31T03:49:38;12.00;99.90
336;DHT22;156;48.738;9.228;2023-08-31T03:52:05;12.00;99.90
336;DHT22;156;48.738;9.228;2023-08-31T03:54:32;12.00;99.90
336;DHT22;156;48.738;9.228;2023-08-31T03:57:00;12.00;99.90
336;DHT22;156;48.738;9.228;2023-08-31T03:59:27;12.00;99.90
336;DHT22;156;48.738;9.228;2023-08-31T04:01:54;12.00;99.90
336;DHT22;156;48.738;9.228;2023-08-31T04:04:21;12.10;99.90
336;DHT22;156;48.738;9.228;2023-08-31T04:06:48;12.10;99.90
336;DHT22;156;48.738;9.228;2023-08-31T04:09:18;12.10;99.90
336;DHT22;156;48.738;9.228;2023-08-31T04:11:49;12.10;99.90
336;DHT22;156;48.738;9.228;2023-08-31T04:14:17;12.10;99.90
336;DHT22;156;48.738;9.228;2023-08-31T04:16:46;12.10;99.90
336;DHT22;156;48.738;9.228;2023-08-31T04:19:15;12.10;99.90
336;DHT22;156;48.738;9.228;2023-08-31T04:21:46;12.10;99.90
336;DHT22;156;48.738;9.228;2023-08-31T04:24:13;12.10;99.90
336;DHT22;156;48.738;9.228;2023-08-31T04:26:40;12.00;99.90
336;DHT22;156;48.738;9.228;2023-08-31T04:29:07;12.00;99.90
336;DHT22;156;48.738;9.228;2023-08-31T04:31:35;12.00;99.90
336;DHT22;156;48.738;9.228;2023-08-31T04:34:03;12.00;99.90
336;DHT22;156;48.738;9.228;2023-08-31T04:38:57;11.90;99.90
336;DHT22;156;48.738;9.228;2023-08-31T04:41:24;11.90;99.90
336;DHT22;156;48.738;9.228;2023-08-31T04:43:51;11.90;99.90
336;DHT22;156;48.738;9.228;2023-08-31T04:46:18;11.80;99.90
336;DHT22;156;48.738;9.228;2023-08-31T04:48:47;11.80;99.90
336;DHT22;156;48.738;9.228;2023-08-31T04:51:33;11.80;99.90
336;DHT22;156;48.738;9.228;2023-08-31T04:54:01;11.90;99.90
336;DHT22;156;48.738;9.228;2023-08-31T04:56:30;11.80;99.90
336;DHT22;156;48.738;9.228;2023-08-31T04:58:57;11.80;99.90
336;DHT22;156;48.738;9.228;2023-08-31T05:01:24;11.80;99.90
336;DHT22;156;48.738;9.228;2023-08-31T05:03:52;11.90;99.90
336;DHT22;156;48.738;9.228;2023-08-31T05:06:24;11.90;99.90
336;DHT22;156;48.738;9.228;2023-08-31T05:08:51;11.90;99.90
336;DHT22;156;48.738;9.228;2023-08-31T05:11:18;11.90;99.90
336;DHT22;156;48.738;9.228;2023-08-31T05:13:45;11.80;99.90
336;DHT22;156;48.738;9.228;2023-08-31T05:16:12;11.90;99.90
336;DHT22;156;48.738;9.228;2023-08-31T05:18:39;11.90;99.90
336;DHT22;156;48.738;9.228;2023-08-31T05:21:12;11.90;99.90
336;DHT22;156;48.738;9.228;2023-08-31T05:23:39;11.90;99.90
336;DHT22;156;48.738;9.228;2023-08-31T05:26:06;11.90;99.90
336;DHT22;156;48.738;9.228;2023-08-31T05:28:36;11.90;99.90
336;DHT22;156;48.738;9.228;2023-08-31T05:31:05;12.10;99.90
336;DHT22;156;48.738;9.228;2023-08-31T05:36:01;12.10;99.90
336;DHT22;156;48.738;9.228;2023-08-31T05:38:30;12.20;99.90
336;DHT22;156;48.738;9.228;2023-08-31T05:41:04;12.20;99.90
336;DHT22;156;48.738;9.228;2023-08-31T05:43:33;12.20;99.90
336;DHT22;156;48.738;9.228;2023-08-31T05:46:00;12.30;99.90
336;DHT22;156;48.738;9.228;2023-08-31T05:48:28;12.30;99.90
336;DHT22;156;48.738;9.228;2023-08-31T05:53:23;12.40;99.90
336;DHT22;156;48.738;9.228;2023-08-31T05:55:54;12.50;99.90
336;DHT22;156;48.738;9.228;2023-08-31T05:58:28;12.60;99.90
336;DHT22;156;48.738;9.228;2023-08-31T06:00:55;12.60;99.90
336;DHT22;156;48.738;9.228;2023-08-31T06:03:22;13.40;99.90
336;DHT22;156;48.738;9.228;2023-08-31T06:05:49;12.60;99.90
336;DHT22;156;48.738;9.228;2023-08-31T06:10:43;12.70;99.90
336;DHT22;156;48.738;9.228;2023-08-31T06:13:12;12.70;99.90
336;DHT22;156;48.738;9.228;2023-08-31T06:15:39;12.70;99.90
336;DHT22;156;48.738;9.228;2023-08-31T06:18:06;12.70;99.90
336;DHT22;156;48.738;9.228;2023-08-31T06:20:33;12.60;99.90
336;DHT22;156;48.738;9.228;2023-08-31T06:23:00;12.60;99.90
336;DHT22;156;48.738;9.228;2023-08-31T06:25:27;12.60;99.90
336;DHT22;156;48.738;9.228;2023-08-31T06:27:54;12.60;99.90
336;DHT22;156;48.738;9.228;2023-08-31T06:30:22;12.60;99.90
336;DHT22;156;48.738;9.228;2023-08-31T06:32:49;12.60;99.90
336;DHT22;156;48.738;9.228;2023-08-31T06:35:17;12.60;99.90
336;DHT22;156;48.738;9.228;2023-08-31T06:37:45;12.70;99.90
336;DHT22;156;48.738;9.228;2023-08-31T06:40:12;12.60;99.90
336;DHT22;156;48.738;9.228;2023-08-31T06:42:39;12.80;99.90
336;DHT22;156;48.738;9.228;2023-08-31T06:45:07;12.80;99.90
336;DHT22;156;48.738;9.228;2023-08-31T06:50:03;12.80;99.90
336;DHT22;156;48.738;9.228;2023-08-31T06:52:30;12.90;99.90
336;DHT22;156;48.738;9.228;2023-08-31T06:54:57;13.00;99.90
336;DHT22;156;48.738;9.228;2023-08-31T06:57:33;13.10;99.90
336;DHT22;156;48.738;9.228;2023-08-31T07:00:02;13.10;99.90
336;DHT22;156;48.738;9.228;2023-08-31T07:02:31;13.20;99.90
336;DHT22;156;48.738;9.228;2023-08-31T07:05:05;13.20;99.90
336;DHT22;156;48.738;9.228;2023-08-31T07:07:38;13.30;99.90
336;DHT22;156;48.738;9.228;2023-08-31T07:10:06;13.30;99.90
336;DHT22;156;48.738;9.228;2023-08-31T07:12:33;13.40;99.90
336;DHT22;156;48.738;9.228;2023-08-31T07:15:00;13.60;99.90
336;DHT22;156;48.738;9.228;2023-08-31T07:17:27;13.70;99.90
336;DHT22;156;48.738;9.228;2023-08-31T07:19:54;13.80;91.20
336;DHT22;156;48.738;9.228;2023-08-31T07:22:24;13.90;73.50
336;DHT22;156;48.738;9.228;2023-08-31T07:24:51;14.10;14.80
336;DHT22;156;48.738;9.228;2023-08-31T07:27:18;14.20;20.10
336;DHT22;156;48.738;9.228;2023-08-31T07:29:45;14.40;1.00
336;DHT22;156;48.738;9.228;2023-08-31T07:32:12;14.40;1.00
336;DHT22;156;48.738;9.228;2023-08-31T07:34:39;14.30;1.00
336;DHT22;156;48.738;9.228;2023-08-31T07:37:06;14.50;1.00
336;DHT22;156;48.738;9.228;2023-08-31T07:39:34;14.60;1.00
336;DHT22;156;48.738;9.228;2023-08-31T07:42:01;14.50;1.00
336;DHT22;156;48.738;9.228;2023-08-31T07:44:28;14.40;1.00
336;DHT22;156;48.738;9.228;2023-08-31T07:46:55;14.40;1.00
336;DHT22;156;48.738;9.228;2023-08-31T07:49:22;14.40;1.00
336;DHT22;156;48.738;9.228;2023-08-31T07:51:49;14.60;1.00
336;DHT22;156;48.738;9.228;2023-08-31T07:54:19;14.60;1.00
336;DHT22;156;48.738;9.228;2023-08-31T07:56:48;14.70;1.00
336;DHT22;156;48.738;9.228;2023-08-31T07:59:15;14.70;1.00
336;DHT22;156;48.738;9.228;2023-08-31T08:01:42;14.80;1.00
336;DHT22;156;48.738;9.228;2023-08-31T08:04:10;14.80;1.00
336;DHT22;156;48.738;9.228;2023-08-31T08:06:37;15.00;99.90
336;DHT22;156;48.738;9.228;2023-08-31T08:09:04;15.00;99.90
336;DHT22;156;48.738;9.228;2023-08-31T08:11:31;15.10;23.50
336;DHT22;156;48.738;9.228;2023-08-31T08:13:59;15.10;1.00
336;DHT22;156;48.738;9.228;2023-08-31T08:16:26;15.10;25.00
336;DHT22;156;48.738;9.228;2023-08-31T08:18:53;15.20;1.00
336;DHT22;156;48.738;9.228;2023-08-31T08:21:20;15.40;1.00
336;DHT22;156;48.738;9.228;2023-08-31T08:23:47;15.60;1.00
336;DHT22;156;48.738;9.228;2023-08-31T08:26:16;15.50;1.00
336;DHT22;156;48.738;9.228;2023-08-31T08:28:43;15.70;1.00
336;DHT22;156;48.738;9.228;2023-08-31T08:31:11;15.40;99.90
336;DHT22;156;48.738;9.228;2023-08-31T08:33:38;15.60;99.90
336;DHT22;156;48.738;9.228;2023-08-31T08:36:06;15.60;99.90
336;DHT22;156;48.738;9.228;2023-08-31T08:38:33;15.60;99.90
336;DHT22;156;48.738;9.228;2023-08-31T08:41:04;15.80;99.90
336;DHT22;156;48.738;9.228;2023-08-31T08:43:33;15.80;99.90
336;DHT22;156;48.738;9.228;2023-08-31T08:46:04;15.90;99.90
336;DHT22;156;48.738;9.228;2023-08-31T08:48:34;15.90;99.90
336;DHT22;156;48.738;9.228;2023-08-31T08:51:04;16.10;99.90
336;DHT22;156;48.738;9.228;2023-08-31T08:53:34;16.20;99.40
336;DHT22;156;48.738;9.228;2023-08-31T08:56:04;16.10;99.90
336;DHT22;156;48.738;9.228;2023-08-31T08:58:31;16.40;99.90
336;DHT22;156;48.738;9.228;2023-08-31T09:00:57;16.10;29.30
336;DHT22;156;48.738;9.228;2023-08-31T09:03:25;16.10;28.20
336;DHT22;156;48.738;9.228;2023-08-31T09:05:53;16.10;10.90
336;DHT22;156;48.738;9.228;2023-08-31T09:08:26;16.30;46.70
336;DHT22;156;48.738;9.228;2023-08-31T09:10:55;16.30;15.70
336;DHT22;156;48.738;9.228;2023-08-31T09:13:26;15.70;1.00
336;DHT22;156;48.738;9.228;2023-08-31T09:15:55;15.80;1.00
336;DHT22;156;48.738;9.228;2023-08-31T09:18:26;15.80;1.00
336;DHT22;156;48.738;9.228;2023-08-31T09:20:55;15.90;1.00
336;DHT22;156;48.738;9.228;2023-08-31T09:23:23;15.80;1.00
336;DHT22;156;48.738;9.228;2023-08-31T09:25:51;15.80;1.00
336;DHT22;156;48.738;9.228;2023-08-31T09:28:21;15.90;20.50
336;DHT22;156;48.738;9.228;2023-08-31T09:30:49;16.30;1.00
336;DHT22;156;48.738;9.228;2023-08-31T09:33:18;16.30;1.00
336;DHT22;156;48.738;9.228;2023-08-31T09:35:51;16.50;1.00
336;DHT22;156;48.738;9.228;2023-08-31T09:38:19;16.50;1.00
336;DHT22;156;48.738;9.228;2023-08-31T09:40:46;16.60;1.00
336;DHT22;156;48.738;9.228;2023-08-31T09:43:19;16.40;1.00
336;DHT22;156;48.738;9.228;2023-08-31T09:45:47;16.40;1.00
336;DHT22;156;48.738;9.228;2023-08-31T09:48:16;16.40;1.00
336;DHT22;156;48.738;9.228;2023-08-31T09:50:44;16.30;1.00
336;DHT22;156;48.738;9.228;2023-08-31T09:53:11;16.30;1.00
336;DHT22;156;48.738;9.228;2023-08-31T09:55:40;16.50;1.00
336;DHT22;156;48.738;9.228;2023-08-31T09:58:08;16.60;1.00
336;DHT22;156;48.738;9.228;2023-08-31T10:00:36;16.60;1.00
336;DHT22;156;48.738;9.228;2023-08-31T10:03:05;16.90;1.00
336;DHT22;156;48.738;9.228;2023-08-31T10:05:32;16.80;1.00
336;DHT22;156;48.738;9.228;2023-08-31T10:08:02;16.70;1.00
336;DHT22;156;48.738;9.228;2023-08-31T10:10:29;17.00;1.00
336;DHT22;156;48.738;9.228;2023-08-31T10:12:58;17.10;1.00
336;DHT22;156;48.738;9.228;2023-08-31T10:15:31;16.80;1.00
336;DHT22;156;48.738;9.228;2023-08-31T10:17:59;17.20;1.00
336;DHT22;156;48.738;9.228;2023-08-31T10:20:27;17.20;1.00
336;DHT22;156;48.738;9.228;2023-08-31T10:22:57;17.00;1.00
336;DHT22;156;48.738;9.228;2023-08-31T10:25:24;16.80;1.00
336;DHT22;156;48.738;9.228;2023-08-31T10:27:52;16.80;1.00
336;DHT22;156;48.738;9.228;2023-08-31T10:30:27;16.90;1.00
336;DHT22;156;48.738;9.228;2023-08-31T10:33:22;16.90;1.00
336;DHT22;156;48.738;9.228;2023-08-31T10:35:50;17.20;1.00
336;DHT22;156;48.738;9.228;2023-08-31T10:38:24;17.10;1.00
336;DHT22;156;48.738;9.228;2023-08-31T10:41:18;17.10;1.00
336;DHT22;156;48.738;9.228;2023-08-31T10:43:48;17.10;1.00
336;DHT22;156;48.738;9.228;2023-08-31T10:48:54;17.40;1.00
336;DHT22;156;48.738;9.228;2023-08-31T10:54:20;17.50;1.00
336;DHT22;156;48.738;9.228;2023-08-31T10:59:45;17.40;1.00
336;DHT22;156;48.738;9.228;2023-08-31T11:02:55;17.30;1.00
336;DHT22;156;48.738;9.228;2023-08-31T11:10:24;17.30;1.00
336;DHT22;156;48.738;9.228;2023-08-31T11:12:56;17.40;1.00
336;DHT22;156;48.738;9.228;2023-08-31T11:15:26;17.50;1.00
336;DHT22;156;48.738;9.228;2023-08-31T11:30:25;17.40;1.00
336;DHT22;156;48.738;9.228;2023-08-31T11:32:53;17.30;1.00
336;DHT22;156;48.738;9.228;2023-08-31T11:35:22;17.60;1.00
336;DHT22;156;48.738;9.228;2023-08-31T11:37:50;17.70;1.00
336;DHT22;156;48.738;9.228;2023-08-31T11:40:18;18.00;1.00
336;DHT22;156;48.738;9.228;2023-08-31T11:42:45;18.00;1.00
336;DHT22;156;48.738;9.228;2023-08-31T11:45:14;18.00;1.00
336;DHT22;156;48.738;9.228;2023-08-31T11:47:41;18.10;1.00
336;DHT22;156;48.738;9.228;2023-08-31T11:50:11;18.40;1.00
336;DHT22;156;48.738;9.228;2023-08-31T11:52:41;18.00;1.00
336;DHT22;156;48.738;9.228;2023-08-31T11:55:12;18.00;1.00
336;DHT22;156;48.738;9.228;2023-08-31T11:57:39;18.10;1.00
336;DHT22;156;48.738;9.228;2023-08-31T12:00:07;18.20;1.00
336;DHT22;156;48.738;9.228;2023-08-31T12:02:36;18.20;1.00
336;DHT22;156;48.738;9.228;2023-08-31T12:05:03;18.50;1.00
336;DHT22;156;48.738;9.228;2023-08-31T12:07:31;18.50;1.00
336;DHT22;156;48.738;9.228;2023-08-31T12:10:03;18.50;1.00
336;DHT22;156;48.738;9.228;2023-08-31T12:12:30;18.70;1.00
336;DHT22;156;48.738;9.228;2023-08-31T12:15:01;18.80;1.00
336;DHT22;156;48.738;9.228;2023-08-31T12:17:29;18.50;1.00
336;DHT22;156;48.738;9.228;2023-08-31T12:20:02;18.10;1.00
336;DHT22;156;48.738;9.228;2023-08-31T12:22:31;18.50;1.00
336;DHT22;156;48.738;9.228;2023-08-31T12:24:58;18.20;1.00
336;DHT22;156;48.738;9.228;2023-08-31T12:29:55;17.90;1.00
336;DHT22;156;48.738;9.228;2023-08-31T12:34:50;18.00;1.00
336;DHT22;156;48.738;9.228;2023-08-31T12:37:17;18.10;1.00
336;DHT22;156;48.738;9.228;2023-08-31T12:39:44;18.10;1.00
336;DHT22;156;48.738;9.228;2023-08-31T12:42:11;17.90;1.00
336;DHT22;156;48.738;9.228;2023-08-31T12:44:39;18.00;1.00
336;DHT22;156;48.738;9.228;2023-08-31T12:47:06;18.10;1.00
336;DHT22;156;48.738;9.228;2023-08-31T12:49:33;18.30;1.00
336;DHT22;156;48.738;9.228;2023-08-31T12:52:00;18.60;1.00
336;DHT22;156;48.738;9.228;2023-08-31T12:54:28;18.70;1.00
336;DHT22;156;48.738;9.228;2023-08-31T12:56:55;18.90;1.00
336;DHT22;156;48.738;9.228;2023-08-31T12:59:22;18.80;1.00
336;DHT22;156;48.738;9.228;2023-08-31T13:01:50;18.40;1.00
336;DHT22;156;48.738;9.228;2023-08-31T13:04:19;18.50;1.00
336;DHT22;156;48.738;9.228;2023-08-31T13:06:46;18.10;1.00
336;DHT22;156;48.738;9.228;2023-08-31T13:09:13;18.10;1.00
336;DHT22;156;48.738;9.228;2023-08-31T13:11:41;18.10;1.00
336;DHT22;156;48.738;9.228;2023-08-31T13:14:08;18.10;1.00
336;DHT22;156;48.738;9.228;2023-08-31T13:16:37;18.00;1.00
336;DHT22;156;48.738;9.228;2023-08-31T13:19:07;18.10;1.00
336;DHT22;156;48.738;9.228;2023-08-31T13:21:35;18.20;1.00
336;DHT22;156;48.738;9.228;2023-08-31T13:24:16;18.10;1.00
336;DHT22;156;48.738;9.228;2023-08-31T13:31:54;18.20;1.00
336;DHT22;156;48.738;9.228;2023-08-31T13:34:22;18.40;1.00
336;DHT22;156;48.738;9.228;2023-08-31T13:36:49;18.40;1.00
336;DHT22;156;48.738;9.228;2023-08-31T13:39:17;18.40;1.00
336;DHT22;156;48.738;9.228;2023-08-31T13:41:43;18.80;1.00
336;DHT22;156;48.738;9.228;2023-08-31T13:44:11;19.40;1.00
336;DHT22;156;48.738;9.228;2023-08-31T13:46:38;20.30;1.00
336;DHT22;156;48.738;9.228;2023-08-31T13:49:05;20.20;1.00
336;DHT22;156;48.738;9.228;2023-08-31T13:51:33;21.40;1.00
336;DHT22;156;48.738;9.228;2023-08-31T13:54:02;21.40;1.00
336;DHT22;156;48.738;9.228;2023-08-31T13:56:30;21.70;1.00
336;DHT22;156;48.738;9.228;2023-08-31T13:58:56;22.50;1.00
336;DHT22;156;48.738;9.228;2023-08-31T14:01:24;22.70;1.00
336;DHT22;156;48.738;9.228;2023-08-31T14:06:18;22.30;1.00
336;DHT22;156;48.738;9.228;2023-08-31T14:11:17;21.60;1.00
336;DHT22;156;48.738;9.228;2023-08-31T14:13:44;20.50;1.00
336;DHT22;156;48.738;9.228;2023-08-31T14:16:12;20.00;1.00
336;DHT22;156;48.738;9.228;2023-08-31T14:18:42;19.70;1.00
336;DHT22;156;48.738;9.228;2023-08-31T14:21:14;19.00;1.00
336;DHT22;156;48.738;9.228;2023-08-31T14:23:42;19.50;1.00
336;DHT22;156;48.738;9.228;2023-08-31T14:26:12;18.50;1.00
336;DHT22;156;48.738;9.228;2023-08-31T14:28:39;18.50;1.00
336;DHT22;156;48.738;9.228;2023-08-31T14:31:08;18.40;1.00
336;DHT22;156;48.738;9.228;2023-08-31T14:33:36;18.40;1.00
336;DHT22;156;48.738;9.228;2023-08-31T14:36:03;18.40;1.00
336;DHT22;156;48.738;9.228;2023-08-31T14:38:30;18.50;1.00
336;DHT22;156;48.738;9.228;2023-08-31T14:40:57;18.80;1.00
336;DHT22;156;48.738;9.228;2023-08-31T14:43:26;18.80;1.00
336;DHT22;156;48.738;9.228;2023-08-31T14:45:52;18.80;1.00
336;DHT22;156;48.738;9.228;2023-08-31T14:48:20;18.80;1.00
336;DHT22;156;48.738;9.228;2023-08-31T14:50:46;18.80;1.00
336;DHT22;156;48.738;9.228;2023-08-31T14:53:16;18.90;1.00
336;DHT22;156;48.738;9.228;2023-08-31T14:55:48;18.80;1.00
336;DHT22;156;48.738;9.228;2023-08-31T14:58:15;18.90;1.00
336;DHT22;156;48.738;9.228;2023-08-31T15:00:43;18.80;1.00
336;DHT22;156;48.738;9.228;2023-08-31T15:03:11;19.00;1.00
336;DHT22;156;48.738;9.228;2023-08-31T15:05:38;18.80;1.00
336;DHT22;156;48.738;9.228;2023-08-31T15:08:06;18.80;1.00
336;DHT22;156;48.738;9.228;2023-08-31T15:10:33;18.70;1.00
336;DHT22;156;48.738;9.228;2023-08-31T15:13:00;18.40;1.00
336;DHT22;156;48.738;9.228;2023-08-31T15:15:28;18.50;1.00
336;DHT22;156;48.738;9.228;2023-08-31T15:17:58;18.40;1.00
336;DHT22;156;48.738;9.228;2023-08-31T15:20:26;18.30;1.00
336;DHT22;156;48.738;9.228;2023-08-31T15:25:23;18.30;1.00
336;DHT22;156;48.738;9.228;2023-08-31T15:30:20;18.40;1.00
336;DHT22;156;48.738;9.228;2023-08-31T15:32:47;18.50;1.00
336;DHT22;156;48.738;9.228;2023-08-31T15:35:16;18.50;1.00
336;DHT22;156;48.738;9.228;2023-08-31T15:37:43;18.60;1.00
336;DHT22;156;48.738;9.228;2023-08-31T15:40:13;18.70;1.00
336;DHT22;156;48.738;9.228;2023-08-31T15:42:42;18.70;1.00
336;DHT22;156;48.738;9.228;2023-08-31T15:45:10;18.70;1.00
336;DHT22;156;48.738;9.228;2023-08-31T15:47:53;18.50;1.00
336;DHT22;156;48.738;9.228;2023-08-31T15:50:27;18.50;1.00
336;DHT22;156;48.738;9.228;2023-08-31T15:55:23;18.30;1.00
336;DHT22;156;48.738;9.228;2023-08-31T15:57:50;18.10;1.00
336;DHT22;156;48.738;9.228;2023-08-31T16:00:17;18.00;1.00
336;DHT22;156;48.738;9.228;2023-08-31T16:02:49;18.00;1.00
336;DHT22;156;48.738;9.228;2023-08-31T16:05:16;18.00;1.00
336;DHT22;156;48.738;9.228;2023-08-31T16:07:45;18.00;1.00
336;DHT22;156;48.738;9.228;2023-08-31T16:10:12;18.00;1.00
336;DHT22;156;48.738;9.228;2023-08-31T16:12:39;18.00;1.00
336;DHT22;156;48.738;9.228;2023-08-31T16:15:07;18.00;1.00
336;DHT22;156;48.738;9.228;2023-08-31T16:17:34;18.00;1.00
336;DHT22;156;48.738;9.228;2023-08-31T16:20:01;18.00;1.00
336;DHT22;156;48.738;9.228;2023-08-31T16:22:28;18.10;1.00
336;DHT22;156;48.738;9.228;2023-08-31T16:24:57;18.20;1.00
336;DHT22;156;48.738;9.228;2023-08-31T16:27:24;18.30;1.00
336;DHT22;156;48.738;9.228;2023-08-31T16:32:18;18.30;1.00
336;DHT22;156;48.738;9.228;2023-08-31T16:34:46;18.30;1.00
336;DHT22;156;48.738;9.228;2023-08-31T16:39:40;18.40;1.00
336;DHT22;156;48.738;9.228;2023-08-31T16:42:09;18.50;1.00
336;DHT22;156;48.738;9.228;2023-08-31T16:44:36;18.40;1.00
336;DHT22;156;48.738;9.228;2023-08-31T16:47:04;18.40;1.00
336;DHT22;156;48.738;9.228;2023-08-31T16:49:31;18.10;1.00
336;DHT22;156;48.738;9.228;2023-08-31T16:51:58;18.00;1.00
336;DHT22;156;48.738;9.228;2023-08-31T16:54:25;17.90;1.00
336;DHT22;156;48.738;9.228;2023-08-31T16:56:52;17.80;1.00
336;DHT22;156;48.738;9.228;2023-08-31T16:59:22;17.80;1.00
336;DHT22;156;48.738;9.228;2023-08-31T17:01:52;17.80;1.00
336;DHT22;156;48.738;9.228;2023-08-31T17:04:19;17.40;1.00
336;DHT22;156;48.738;9.228;2023-08-31T17:06:46;17.70;1.00
336;DHT22;156;48.738;9.228;2023-08-31T17:09:13;17.60;1.00
336;DHT22;156;48.738;9.228;2023-08-31T17:11:40;17.60;1.00
336;DHT22;156;48.738;9.228;2023-08-31T17:14:07;17.60;1.00
336;DHT22;156;48.738;9.228;2023-08-31T17:19:04;17.50;1.00
336;DHT22;156;48.738;9.228;2023-08-31T17:21:33;17.70;1.00
336;DHT22;156;48.738;9.228;2023-08-31T17:24:00;17.60;1.00
336;DHT22;156;48.738;9.228;2023-08-31T17:26:27;17.50;1.00
336;DHT22;156;48.738;9.228;2023-08-31T17:28:54;17.50;1.00
336;DHT22;156;48.738;9.228;2023-08-31T17:31:21;17.40;1.00
336;DHT22;156;48.738;9.228;2023-08-31T17:33:52;17.50;1.00
336;DHT22;156;48.738;9.228;2023-08-31T17:36:19;17.50;1.00
336;DHT22;156;48.738;9.228;2023-08-31T17:38:48;17.40;9.60
336;DHT22;156;48.738;9.228;2023-08-31T17:41:15;17.40;22.30
336;DHT22;156;48.738;9.228;2023-08-31T17:43:45;17.40;66.90
336;DHT22;156;48.738;9.228;2023-08-31T17:46:14;17.40;77.00
336;DHT22;156;48.738;9.228;2023-08-31T17:48:41;17.40;87.60
336;DHT22;156;48.738;9.228;2023-08-31T17:51:11;17.40;91.90
336;DHT22;156;48.738;9.228;2023-08-31T17:53:38;17.50;91.90
336;DHT22;156;48.738;9.228;2023-08-31T17:56:05;17.40;81.80
336;DHT22;156;48.738;9.228;2023-08-31T17:58:32;17.40;83.30
336;DHT22;156;48.738;9.228;2023-08-31T18:00:59;17.40;84.90
336;DHT22;156;48.738;9.228;2023-08-31T18:05:54;17.40;91.90
336;DHT22;156;48.738;9.228;2023-08-31T18:10:52;17.50;98.40
336;DHT22;156;48.738;9.228;2023-08-31T18:13:22;17.50;94.70
336;DHT22;156;48.738;9.228;2023-08-31T18:15:50;17.40;99.90
336;DHT22;156;48.738;9.228;2023-08-31T18:18:17;17.40;99.90
336;DHT22;156;48.738;9.228;2023-08-31T18:20:44;17.40;99.90
336;DHT22;156;48.738;9.228;2023-08-31T18:23:13;17.40;99.90
336;DHT22;156;48.738;9.228;2023-08-31T18:25:45;17.30;99.90